createdAt,value
2024-02-23T00:00:59.583Z,2.57
2024-02-23T00:04:08.064Z,2.73
2024-02-23T00:06:37.033Z,2.50
2024-02-23T00:09:05.977Z,2.33
2024-02-23T00:11:35.588Z,2.60
2024-02-23T00:14:05.555Z,2.40
2024-02-23T00:16:34.325Z,2.60
2024-02-23T00:19:02.938Z,2.57
2024-02-23T00:21:31.620Z,2.93
2024-02-23T00:24:00.788Z,2.90
2024-02-23T00:26:31.088Z,1.77
2024-02-23T00:29:37.838Z,2.83
2024-02-23T00:32:44.202Z,2.47
2024-02-23T00:35:50.337Z,2.80
2024-02-23T00:38:20.954Z,2.40
2024-02-23T00:40:49.742Z,2.53
2024-02-23T00:43:18.439Z,3.23
2024-02-23T00:46:24.845Z,1.87
2024-02-23T00:49:30.805Z,2.10
2024-02-23T00:52:36.851Z,3.13
2024-02-23T00:55:09.625Z,2.60
2024-02-23T00:57:38.530Z,2.40
2024-02-23T01:00:44.595Z,2.53
2024-02-23T01:03:50.774Z,3.00
2024-02-23T01:06:56.728Z,3.37
2024-02-23T01:10:02.799Z,2.73
2024-02-23T01:12:33.148Z,3.13
2024-02-23T01:15:05.486Z,2.90
2024-02-23T01:18:12.260Z,2.67
2024-02-23T01:21:18.406Z,2.80
2024-02-23T01:23:47.912Z,3.00
2024-02-23T01:26:53.920Z,2.60
2024-02-23T01:30:00.175Z,3.10
2024-02-23T01:32:31.223Z,3.20
2024-02-23T01:35:00.704Z,4.00
2024-02-23T01:37:29.908Z,4.90
2024-02-23T01:40:36.729Z,3.70
2024-02-23T01:43:06.066Z,4.17
2024-02-23T01:46:12.552Z,5.83
2024-02-23T01:48:43.210Z,3.27
2024-02-23T01:51:49.369Z,3.53
2024-02-23T01:54:19.079Z,3.93
2024-02-23T01:57:39.764Z,2.43
2024-02-23T02:00:19.099Z,2.87
2024-02-23T02:03:25.345Z,2.30
2024-02-23T02:06:31.442Z,2.13
2024-02-23T02:09:02.033Z,2.23
2024-02-23T02:11:31.352Z,2.70
2024-02-23T02:14:00.912Z,2.40
2024-02-23T02:16:29.956Z,1.70
2024-02-23T02:18:59.430Z,2.30
2024-02-23T02:22:05.906Z,2.47
2024-02-23T02:25:11.667Z,2.03
2024-02-23T02:28:17.642Z,2.83
2024-02-23T02:31:23.536Z,2.07
2024-02-23T02:33:54.766Z,1.73
2024-02-23T02:37:00.800Z,1.70
2024-02-23T02:40:06.918Z,1.80
2024-02-23T02:42:36.506Z,2.13
2024-02-23T02:45:05.638Z,2.20
2024-02-23T02:47:34.247Z,2.17
2024-02-23T02:50:04.362Z,1.90
2024-02-23T02:52:33.697Z,1.60
2024-02-23T02:55:12.462Z,2.77
2024-02-23T02:57:41.432Z,3.33
2024-02-23T03:00:13.000Z,4.13
2024-02-23T03:02:42.307Z,4.23
2024-02-23T03:05:12.547Z,4.27
2024-02-23T03:07:40.920Z,4.33
2024-02-23T03:10:12.487Z,5.20
2024-02-23T03:12:41.694Z,4.13
2024-02-23T03:15:47.791Z,4.20
2024-02-23T03:18:55.672Z,3.50
2024-02-23T03:22:01.475Z,3.40
2024-02-23T03:25:09.729Z,4.30
2024-02-23T03:28:16.006Z,4.17
2024-02-23T03:31:22.264Z,3.57
2024-02-23T03:34:28.549Z,2.60
2024-02-23T03:37:34.525Z,3.30
2024-02-23T03:40:40.258Z,2.77
2024-02-23T03:43:10.795Z,2.60
2024-02-23T03:46:19.235Z,2.23
2024-02-23T03:49:25.911Z,2.13
2024-02-23T03:51:55.163Z,1.90
2024-02-23T03:54:23.791Z,1.80
2024-02-23T03:56:52.854Z,2.37
2024-02-23T03:59:23.074Z,2.77
2024-02-23T04:02:29.073Z,2.30
2024-02-23T04:05:34.917Z,2.20
2024-02-23T04:08:41.210Z,2.27
2024-02-23T04:11:10.900Z,2.50
2024-02-23T04:13:39.952Z,2.07
2024-02-23T04:16:47.910Z,1.90
2024-02-23T04:19:53.996Z,2.03
2024-02-23T04:23:00.368Z,13.63
2024-02-23T04:26:06.492Z,4.37
2024-02-23T04:28:37.512Z,2.67
2024-02-23T04:31:06.357Z,2.30
2024-02-23T04:33:35.384Z,2.50
2024-02-23T04:36:04.387Z,1.57
2024-02-23T04:38:33.365Z,2.13
2024-02-23T04:41:05.360Z,1.87
2024-02-23T04:43:34.854Z,1.77
2024-02-23T04:46:04.966Z,1.57
2024-02-23T04:48:34.135Z,1.77
2024-02-23T04:51:02.586Z,1.30
2024-02-23T04:53:31.645Z,1.50
2024-02-23T04:56:00.380Z,1.60
2024-02-23T04:58:29.285Z,1.70
2024-02-23T05:01:08.424Z,1.80
2024-02-23T05:03:37.380Z,1.03
2024-02-23T05:06:06.959Z,1.10
2024-02-23T05:08:35.810Z,1.00
2024-02-23T05:11:04.873Z,1.57
2024-02-23T05:13:34.444Z,1.30
2024-02-23T05:16:02.704Z,1.00
2024-02-23T05:18:32.987Z,1.17
2024-02-23T05:21:01.483Z,0.93
2024-02-23T05:23:30.599Z,1.13
2024-02-23T05:25:59.616Z,0.90
2024-02-23T05:28:29.130Z,1.50
2024-02-23T05:30:57.638Z,1.00
2024-02-23T05:33:26.526Z,1.00
2024-02-23T05:35:56.658Z,1.93
2024-02-23T05:38:25.450Z,1.40
2024-02-23T05:40:53.952Z,1.50
2024-02-23T05:43:22.719Z,1.63
2024-02-23T05:45:50.988Z,1.20
2024-02-23T05:48:22.812Z,1.97
2024-02-23T05:50:51.363Z,1.30
2024-02-23T05:53:21.670Z,1.10
2024-02-23T05:55:50.384Z,1.33
2024-02-23T05:58:31.016Z,1.43
2024-02-23T06:00:59.499Z,1.43
2024-02-23T06:03:28.284Z,0.90
2024-02-23T06:05:57.014Z,0.83
2024-02-23T06:08:27.824Z,0.80
2024-02-23T06:10:56.296Z,0.90
2024-02-23T06:13:24.665Z,0.97
2024-02-23T06:15:53.070Z,0.80
2024-02-23T06:18:21.214Z,0.70
2024-02-23T06:20:51.532Z,1.03
2024-02-23T06:23:20.328Z,0.80
2024-02-23T06:25:50.515Z,0.70
2024-02-23T06:28:19.219Z,0.90
2024-02-23T06:30:47.793Z,0.70
2024-02-23T06:33:17.275Z,0.73
2024-02-23T06:35:46.005Z,0.70
2024-02-23T06:38:15.157Z,0.80
2024-02-23T06:40:49.046Z,0.90
2024-02-23T06:43:23.573Z,0.80
2024-02-23T06:45:52.735Z,0.77
2024-02-23T06:48:22.023Z,0.60
2024-02-23T06:50:51.233Z,0.80
2024-02-23T06:53:20.396Z,0.60
2024-02-23T06:55:48.913Z,0.60
2024-02-23T06:58:18.109Z,0.60
2024-02-23T07:00:48.979Z,0.70
2024-02-23T07:03:18.256Z,0.63
2024-02-23T07:05:48.742Z,0.70
2024-02-23T07:08:17.482Z,0.67
2024-02-23T07:10:46.589Z,0.73
2024-02-23T07:13:15.709Z,0.70
2024-02-23T07:15:44.608Z,0.97
2024-02-23T07:18:14.285Z,1.00
2024-02-23T07:20:43.353Z,0.80
2024-02-23T07:23:12.334Z,0.80
2024-02-23T07:25:42.333Z,0.70
2024-02-23T07:28:10.772Z,0.70
2024-02-23T07:30:39.191Z,0.80
2024-02-23T07:33:08.198Z,0.70
2024-02-23T07:35:38.434Z,0.90
2024-02-23T07:38:07.383Z,0.90
2024-02-23T07:40:36.104Z,0.83
2024-02-23T07:43:05.214Z,1.00
2024-02-23T07:45:35.628Z,0.90
2024-02-23T07:48:05.729Z,1.07
2024-02-23T07:50:34.939Z,0.70
2024-02-23T07:53:05.633Z,1.00
2024-02-23T07:55:34.105Z,1.00
2024-02-23T07:58:03.538Z,0.80
2024-02-23T08:00:32.087Z,0.70
2024-02-23T08:03:01.649Z,0.70
2024-02-23T08:05:30.531Z,0.70
2024-02-23T08:08:00.688Z,0.80
2024-02-23T08:10:31.168Z,0.60
2024-02-23T08:13:00.150Z,0.60
2024-02-23T08:15:28.732Z,0.60
2024-02-23T08:17:58.280Z,0.57
2024-02-23T08:20:26.986Z,0.60
2024-02-23T08:22:55.959Z,0.60
2024-02-23T08:25:24.447Z,0.73
2024-02-23T08:27:54.653Z,1.40
2024-02-23T08:30:23.280Z,1.00
2024-02-23T08:32:53.541Z,1.63
2024-02-23T08:35:22.426Z,1.30
2024-02-23T08:37:51.597Z,1.40
2024-02-23T08:40:20.419Z,2.20
2024-02-23T08:42:51.235Z,1.80
2024-02-23T08:45:22.597Z,1.40
2024-02-23T08:47:51.224Z,1.90
2024-02-23T08:50:19.984Z,1.30
2024-02-23T08:52:48.366Z,0.77
2024-02-23T08:55:17.245Z,0.97
2024-02-23T08:57:45.751Z,1.00
2024-02-23T09:00:18.351Z,0.60
2024-02-23T09:02:48.767Z,0.70
2024-02-23T09:05:18.006Z,0.60
2024-02-23T09:07:49.395Z,0.80
2024-02-23T09:10:19.711Z,1.00
2024-02-23T09:12:48.450Z,0.80
2024-02-23T09:15:16.961Z,0.70
2024-02-23T09:17:46.072Z,0.60
2024-02-23T09:20:16.492Z,0.80
2024-02-23T09:22:45.304Z,1.43
2024-02-23T09:25:14.116Z,0.80
2024-02-23T09:27:44.936Z,0.80
2024-02-23T09:30:15.051Z,0.83
2024-02-23T09:32:44.581Z,0.63
2024-02-23T09:35:16.302Z,1.23
2024-02-23T09:37:46.349Z,0.87
2024-02-23T09:40:16.432Z,1.03
2024-02-23T09:42:45.013Z,0.70
2024-02-23T09:45:14.717Z,0.70
2024-02-23T09:47:44.517Z,0.70
2024-02-23T09:50:14.809Z,0.57
2024-02-23T09:52:43.739Z,0.60
2024-02-23T09:55:13.988Z,0.90
2024-02-23T09:57:43.617Z,1.40
2024-02-23T10:00:14.011Z,2.70
2024-02-23T10:02:43.361Z,3.87
2024-02-23T10:05:14.108Z,3.27
2024-02-23T10:07:43.787Z,2.63
2024-02-23T10:10:14.054Z,2.43
2024-02-23T10:12:42.911Z,2.30
2024-02-23T10:15:12.251Z,1.87
2024-02-23T10:17:41.075Z,0.80
2024-02-23T10:20:12.218Z,0.90
2024-02-23T10:22:40.648Z,0.90
2024-02-23T10:25:10.799Z,1.10
2024-02-23T10:27:40.673Z,0.90
2024-02-23T10:30:12.617Z,0.70
2024-02-23T10:32:42.249Z,0.80
2024-02-23T10:35:13.461Z,0.60
2024-02-23T10:37:44.986Z,0.77
2024-02-23T10:40:15.130Z,0.70
2024-02-23T10:42:51.389Z,0.70
2024-02-23T10:45:21.623Z,1.10
2024-02-23T10:47:51.151Z,0.90
2024-02-23T10:50:21.376Z,0.80
2024-02-23T10:52:50.183Z,0.77
2024-02-23T10:55:18.984Z,0.77
2024-02-23T10:57:50.913Z,0.80
2024-02-23T11:00:20.623Z,1.90
2024-02-23T11:02:53.156Z,1.80
2024-02-23T11:05:22.188Z,1.80
2024-02-23T11:07:52.463Z,1.27
2024-02-23T11:10:28.991Z,1.40
2024-02-23T11:13:02.806Z,1.30
2024-02-23T11:15:35.044Z,2.50
2024-02-23T11:18:03.936Z,2.50
2024-02-23T11:20:37.531Z,1.60
2024-02-23T11:23:16.600Z,2.50
2024-02-23T11:25:45.038Z,2.97
2024-02-23T11:28:26.994Z,1.87
2024-02-23T11:30:56.063Z,1.43
2024-02-23T11:33:31.558Z,1.07
2024-02-23T11:36:10.463Z,1.00
2024-02-23T11:38:39.204Z,0.90
2024-02-23T11:41:07.666Z,0.80
2024-02-23T11:43:38.559Z,1.30
2024-02-23T11:46:07.216Z,1.00
2024-02-23T11:48:36.906Z,1.10
2024-02-23T11:51:05.972Z,1.10
2024-02-23T11:53:35.313Z,1.03
2024-02-23T11:56:04.763Z,0.90
2024-02-23T11:58:33.560Z,1.90
2024-02-23T12:01:04.096Z,1.40
2024-02-23T12:03:34.331Z,2.50
2024-02-23T12:06:03.991Z,3.87
2024-02-23T12:08:39.218Z,4.33
2024-02-23T12:11:10.372Z,3.90
2024-02-23T12:13:39.500Z,3.20
2024-02-23T12:16:10.871Z,2.83
2024-02-23T12:18:39.474Z,2.50
2024-02-23T12:21:10.203Z,2.40
2024-02-23T12:23:45.887Z,1.83
2024-02-23T12:26:16.857Z,2.10
2024-02-23T12:28:46.942Z,1.97
2024-02-23T12:31:17.312Z,1.87
2024-02-23T12:33:49.840Z,7.30
2024-02-23T12:36:18.992Z,3.70
2024-02-23T12:38:47.796Z,3.17
2024-02-23T12:41:17.508Z,3.30
2024-02-23T12:43:48.637Z,4.20
2024-02-23T12:46:18.968Z,4.80
2024-02-23T12:48:47.323Z,2.30
2024-02-23T12:51:16.349Z,1.30
2024-02-23T12:53:45.298Z,1.10
2024-02-23T12:56:17.691Z,0.97
2024-02-23T12:58:47.165Z,0.90
2024-02-23T13:01:16.142Z,1.53
2024-02-23T13:03:46.296Z,0.70
2024-02-23T13:06:15.422Z,0.90
2024-02-23T13:08:44.637Z,1.50
2024-02-23T13:11:13.562Z,4.47
2024-02-23T13:13:43.989Z,4.33
2024-02-23T13:16:16.432Z,3.67
2024-02-23T13:18:48.214Z,1.73
2024-02-23T13:21:17.267Z,1.50
2024-02-23T13:23:45.739Z,1.70
2024-02-23T13:26:15.924Z,2.07
2024-02-23T13:28:45.631Z,1.70
2024-02-23T13:31:15.059Z,1.60
2024-02-23T13:33:43.680Z,1.90
2024-02-23T13:36:17.318Z,1.83
2024-02-23T13:38:46.525Z,1.40
2024-02-23T13:41:15.571Z,1.43
2024-02-23T13:43:43.771Z,1.60
2024-02-23T13:46:12.316Z,1.20
2024-02-23T13:48:40.837Z,1.10
2024-02-23T13:51:09.629Z,1.00
2024-02-23T13:53:39.450Z,1.07
2024-02-23T13:56:08.293Z,5.40
2024-02-23T13:58:36.522Z,11.73
2024-02-23T14:01:05.372Z,8.10
2024-02-23T14:03:34.727Z,2.93
2024-02-23T14:06:03.684Z,1.93
2024-02-23T14:08:34.874Z,1.20
2024-02-23T14:11:06.898Z,0.80
2024-02-23T14:13:36.312Z,1.00
2024-02-23T14:16:06.483Z,2.93
2024-02-23T14:18:38.487Z,3.63
2024-02-23T14:21:07.470Z,3.60
2024-02-23T14:23:36.331Z,2.47
2024-02-23T14:26:06.825Z,2.00
2024-02-23T14:28:35.364Z,1.00
2024-02-23T14:31:08.421Z,1.00
2024-02-23T14:33:36.897Z,0.90
2024-02-23T14:36:06.317Z,1.10
2024-02-23T14:38:36.073Z,1.07
2024-02-23T14:41:10.396Z,0.80
2024-02-23T14:43:42.581Z,0.70
2024-02-23T14:46:11.657Z,1.23
2024-02-23T14:48:40.765Z,0.80
2024-02-23T14:51:10.768Z,0.60
2024-02-23T14:53:40.146Z,0.80
2024-02-23T14:56:11.214Z,1.20
2024-02-23T14:58:40.191Z,0.90
2024-02-23T15:01:10.005Z,1.30
2024-02-23T15:03:38.710Z,2.00
2024-02-23T15:06:09.835Z,1.27
2024-02-23T15:08:38.618Z,0.80
2024-02-23T15:11:07.661Z,0.80
2024-02-23T15:13:37.790Z,1.17
2024-02-23T15:16:06.482Z,1.67
2024-02-23T15:18:34.805Z,1.10
2024-02-23T15:21:03.509Z,1.13
2024-02-23T15:23:32.113Z,1.00
2024-02-23T15:26:07.299Z,0.87
2024-02-23T15:28:42.174Z,1.00
2024-02-23T15:31:10.935Z,0.93
2024-02-23T15:33:40.860Z,0.80
2024-02-23T15:36:10.536Z,0.80
2024-02-23T15:38:39.539Z,0.93
2024-02-23T15:41:08.407Z,0.80
2024-02-23T15:43:37.394Z,0.70
2024-02-23T15:46:07.382Z,0.70
2024-02-23T15:48:37.608Z,0.50
2024-02-23T15:51:14.887Z,0.90
2024-02-23T15:53:53.192Z,0.80
2024-02-23T15:56:21.972Z,1.10
2024-02-23T15:58:50.486Z,0.80
2024-02-23T16:01:20.540Z,0.70
2024-02-23T16:03:49.405Z,0.50
2024-02-23T16:06:18.468Z,0.80
2024-02-23T16:08:49.903Z,0.70
2024-02-23T16:11:18.997Z,0.70
2024-02-23T16:13:47.972Z,0.80
2024-02-23T16:16:16.542Z,1.17
2024-02-23T16:18:46.608Z,1.00
2024-02-23T16:21:17.577Z,0.73
2024-02-23T16:23:46.985Z,0.60
2024-02-23T16:26:16.743Z,0.70
2024-02-23T16:28:46.082Z,0.60
2024-02-23T16:31:15.796Z,0.67
2024-02-23T16:33:45.039Z,0.80
2024-02-23T16:36:17.398Z,0.60
2024-02-23T16:38:47.782Z,0.60
2024-02-23T16:41:16.818Z,0.50
2024-02-23T16:43:45.850Z,0.70
2024-02-23T16:46:14.772Z,0.50
2024-02-23T16:48:44.268Z,0.70
2024-02-23T16:51:15.047Z,0.60
2024-02-23T16:53:43.829Z,0.60
2024-02-23T16:56:12.391Z,0.60
2024-02-23T16:58:40.777Z,0.40
2024-02-23T17:01:09.917Z,1.40
2024-02-23T17:03:39.289Z,0.97
2024-02-23T17:06:07.658Z,0.60
2024-02-23T17:08:37.654Z,1.10
2024-02-23T17:11:07.699Z,0.90
2024-02-23T17:13:36.502Z,0.90
2024-02-23T17:16:05.590Z,0.90
2024-02-23T17:18:36.045Z,0.90
2024-02-23T17:21:06.122Z,1.63
2024-02-23T17:23:34.654Z,0.70
2024-02-23T17:26:05.969Z,1.00
2024-02-23T17:28:35.044Z,1.13
2024-02-23T17:31:03.475Z,1.80
2024-02-23T17:33:32.114Z,1.93
2024-02-23T17:36:00.392Z,1.20
2024-02-23T17:38:29.548Z,0.93
2024-02-23T17:40:58.571Z,1.20
2024-02-23T17:43:28.628Z,1.00
2024-02-23T17:45:56.932Z,1.10
2024-02-23T17:48:25.516Z,0.90
2024-02-23T17:50:54.305Z,1.10
2024-02-23T17:53:23.191Z,1.17
2024-02-23T17:55:54.923Z,1.30
2024-02-23T17:58:23.409Z,1.27
2024-02-23T18:00:53.111Z,1.63
2024-02-23T18:03:21.777Z,0.80
2024-02-23T18:05:50.374Z,1.27
2024-02-23T18:08:19.172Z,1.20
2024-02-23T18:10:47.469Z,0.80
2024-02-23T18:13:19.031Z,0.70
2024-02-23T18:15:47.680Z,0.93
2024-02-23T18:18:21.366Z,0.90
2024-02-23T18:20:50.324Z,0.80
2024-02-23T18:23:19.014Z,0.90
2024-02-23T18:25:47.548Z,0.90
2024-02-23T18:28:16.166Z,0.80
2024-02-23T18:30:44.684Z,1.00
2024-02-23T18:33:13.696Z,0.90
2024-02-23T18:35:44.071Z,0.80
2024-02-23T18:38:13.029Z,0.90
2024-02-23T18:40:43.613Z,1.10
2024-02-23T18:43:12.553Z,1.50
2024-02-23T18:45:41.541Z,1.37
2024-02-23T18:48:10.393Z,1.10
2024-02-23T18:50:39.084Z,1.00
2024-02-23T18:53:10.171Z,0.90
2024-02-23T18:55:39.266Z,0.80
2024-02-23T18:58:09.166Z,1.20
2024-02-23T19:00:37.934Z,0.83
2024-02-23T19:03:06.982Z,0.87
2024-02-23T19:05:35.921Z,0.93
2024-02-23T19:08:05.108Z,1.00
2024-02-23T19:10:35.424Z,0.80
2024-02-23T19:13:03.968Z,1.00
2024-02-23T19:15:33.690Z,1.10
2024-02-23T19:18:03.028Z,1.03
2024-02-23T19:20:31.961Z,14.20
2024-02-23T19:23:01.920Z,8.63
2024-02-23T19:25:30.983Z,5.93
2024-02-23T19:28:01.582Z,4.00
2024-02-23T19:30:30.495Z,2.40
2024-02-23T19:32:59.638Z,1.20
2024-02-23T19:35:28.201Z,2.90
2024-02-23T19:37:59.407Z,1.00
2024-02-23T19:40:28.545Z,1.30
2024-02-23T19:42:57.350Z,1.20
2024-02-23T19:45:27.950Z,0.80
2024-02-23T19:47:56.740Z,0.80
2024-02-23T19:50:26.282Z,0.80
2024-02-23T19:52:55.253Z,0.80
2024-02-23T19:55:26.591Z,0.80
2024-02-23T19:57:56.024Z,0.97
2024-02-23T20:00:25.081Z,0.80
2024-02-23T20:02:56.501Z,1.33
2024-02-23T20:05:27.219Z,0.80
2024-02-23T20:07:56.103Z,0.83
2024-02-23T20:10:24.606Z,0.90
2024-02-23T20:12:53.590Z,1.00
2024-02-23T20:15:41.926Z,0.70
2024-02-23T20:18:13.342Z,0.70
2024-02-23T20:20:42.498Z,0.87
2024-02-23T20:23:10.875Z,0.80
2024-02-23T20:25:43.413Z,0.60
2024-02-23T20:28:11.923Z,0.93
2024-02-23T20:30:40.654Z,2.00
2024-02-23T20:33:09.967Z,1.23
2024-02-23T20:35:40.179Z,1.13
2024-02-23T20:38:09.295Z,1.13
2024-02-23T20:40:38.082Z,0.80
2024-02-23T20:43:06.866Z,1.80
2024-02-23T20:45:35.412Z,1.30
2024-02-23T20:48:04.962Z,1.10
2024-02-23T20:50:33.443Z,0.97
2024-02-23T20:53:03.799Z,0.93
2024-02-23T20:55:32.314Z,1.03
2024-02-23T20:58:02.032Z,0.83
2024-02-23T21:00:30.767Z,1.00
2024-02-23T21:02:59.942Z,0.80
2024-02-23T21:05:28.880Z,0.70
2024-02-23T21:07:57.915Z,0.97
2024-02-23T21:10:28.042Z,0.93
2024-02-23T21:12:56.704Z,0.90
2024-02-23T21:15:25.917Z,0.87
2024-02-23T21:17:54.662Z,0.97
2024-02-23T21:20:24.122Z,0.90
2024-02-23T21:22:52.810Z,0.80
2024-02-23T21:25:23.534Z,0.93
2024-02-23T21:27:53.873Z,0.80
2024-02-23T21:30:23.047Z,0.90
2024-02-23T21:32:52.572Z,1.00
2024-02-23T21:35:25.641Z,1.00
2024-02-23T21:37:54.816Z,0.87
2024-02-23T21:40:23.872Z,0.97
2024-02-23T21:42:54.339Z,0.87
2024-02-23T21:45:23.165Z,1.07
2024-02-23T21:47:52.374Z,1.30
2024-02-23T21:50:22.920Z,1.10
2024-02-23T21:52:51.765Z,1.10
2024-02-23T21:55:22.870Z,1.20
2024-02-23T21:57:51.691Z,1.23
2024-02-23T22:00:23.238Z,1.10
2024-02-23T22:02:51.800Z,1.10
2024-02-23T22:05:21.570Z,1.70
2024-02-23T22:07:50.192Z,1.40
2024-02-23T22:10:19.395Z,1.47
2024-02-23T22:12:47.786Z,1.90
2024-02-23T22:15:17.350Z,1.50
2024-02-23T22:17:47.456Z,1.33
2024-02-23T22:20:16.171Z,1.57
2024-02-23T22:22:45.006Z,1.40
2024-02-23T22:25:13.646Z,1.33
2024-02-23T22:27:44.920Z,1.47
2024-02-23T22:30:13.914Z,1.53
2024-02-23T22:32:42.794Z,1.60
2024-02-23T22:35:15.537Z,1.10
2024-02-23T22:37:44.220Z,2.20
2024-02-23T22:40:15.305Z,1.90
2024-02-23T22:42:43.716Z,1.60
2024-02-23T22:45:12.992Z,1.87
2024-02-23T22:47:42.190Z,1.67
2024-02-23T22:50:12.951Z,2.10
2024-02-23T22:52:41.799Z,2.20
2024-02-23T22:55:10.858Z,1.93
2024-02-23T22:57:40.106Z,1.53
2024-02-23T23:00:11.991Z,2.00
2024-02-23T23:02:41.529Z,1.60
2024-02-23T23:05:11.542Z,2.40
2024-02-23T23:07:42.190Z,1.43
2024-02-23T23:10:11.707Z,1.90
2024-02-23T23:12:40.610Z,1.93
2024-02-23T23:15:28.310Z,2.60
2024-02-23T23:17:57.882Z,2.53
2024-02-23T23:20:26.768Z,2.00
2024-02-23T23:22:57.533Z,2.00
2024-02-23T23:25:29.477Z,1.97
2024-02-23T23:27:58.423Z,1.53
2024-02-23T23:30:27.121Z,2.37
2024-02-23T23:32:56.515Z,2.57
2024-02-23T23:35:25.276Z,2.70
2024-02-23T23:37:53.780Z,3.20
2024-02-23T23:40:24.184Z,2.10
2024-02-23T23:42:54.815Z,2.57
2024-02-23T23:45:24.007Z,2.33
2024-02-23T23:47:52.737Z,1.80
2024-02-23T23:50:21.981Z,1.10
2024-02-23T23:52:50.911Z,2.23
2024-02-23T23:55:20.802Z,2.50
2024-02-23T23:57:50.986Z,2.37
